createdAt,value
2018-09-14T00:01:02.326Z,17.75
2018-09-14T00:03:30.996Z,17.80
2018-09-14T00:05:59.913Z,17.76
2018-09-14T00:08:30.323Z,17.76
2018-09-14T00:10:59.145Z,17.69
2018-09-14T00:13:27.921Z,17.69
2018-09-14T00:15:56.578Z,17.78
2018-09-14T00:18:26.592Z,17.70
2018-09-14T00:20:55.311Z,17.77
2018-09-14T00:23:24.309Z,17.76
2018-09-14T00:25:53.002Z,17.77
2018-09-14T00:28:21.741Z,17.63
2018-09-14T00:30:50.622Z,17.63
2018-09-14T00:33:19.310Z,17.62
2018-09-14T00:35:48.346Z,17.62
2018-09-14T00:38:17.077Z,17.68
2018-09-14T00:40:46.367Z,17.63
2018-09-14T00:43:15.349Z,17.67
2018-09-14T00:45:44.296Z,17.65
2018-09-14T00:48:13.510Z,17.68
2018-09-14T00:50:42.669Z,17.66
2018-09-14T00:53:11.362Z,17.64
2018-09-14T00:55:40.509Z,17.59
2018-09-14T00:58:09.216Z,17.62
2018-09-14T01:00:38.178Z,17.61
2018-09-14T01:03:07.026Z,17.65
2018-09-14T01:05:35.759Z,17.69
2018-09-14T01:08:04.425Z,17.74
2018-09-14T01:10:33.175Z,17.57
2018-09-14T01:13:02.243Z,17.52
2018-09-14T01:15:30.993Z,17.50
2018-09-14T01:17:59.630Z,17.57
2018-09-14T01:20:28.300Z,17.64
2018-09-14T01:22:56.942Z,17.67
2018-09-14T01:25:25.882Z,17.66
2018-09-14T01:27:54.649Z,17.67
2018-09-14T01:30:23.417Z,17.65
2018-09-14T01:32:52.374Z,17.80
2018-09-14T01:35:26.359Z,17.67
2018-09-14T01:37:55.450Z,17.60
2018-09-14T01:40:24.194Z,17.54
2018-09-14T01:42:52.915Z,17.51
2018-09-14T01:45:21.589Z,17.53
2018-09-14T01:47:50.246Z,17.47
2018-09-14T01:50:18.995Z,17.47
2018-09-14T01:52:47.742Z,17.53
2018-09-14T01:55:16.534Z,17.50
2018-09-14T01:57:45.218Z,17.51
2018-09-14T02:00:13.985Z,17.48
2018-09-14T02:02:42.721Z,17.61
2018-09-14T02:05:11.350Z,17.52
2018-09-14T02:07:40.173Z,17.49
2018-09-14T02:10:08.897Z,17.48
2018-09-14T02:12:37.641Z,17.43
2018-09-14T02:15:06.711Z,17.39
2018-09-14T02:17:35.466Z,17.44
2018-09-14T02:20:04.257Z,17.41
2018-09-14T02:22:32.906Z,17.37
2018-09-14T02:25:01.545Z,17.34
2018-09-14T02:27:30.305Z,17.35
2018-09-14T02:29:59.090Z,17.34
2018-09-14T02:32:27.889Z,17.38
2018-09-14T02:34:56.646Z,17.38
2018-09-14T02:37:25.327Z,17.40
2018-09-14T02:39:53.986Z,17.44
2018-09-14T02:42:22.618Z,17.53
2018-09-14T02:44:51.640Z,17.69
2018-09-14T02:47:20.377Z,17.58
2018-09-14T02:49:49.021Z,17.59
2018-09-14T02:52:17.677Z,17.54
2018-09-14T02:54:46.510Z,17.54
2018-09-14T02:57:15.205Z,17.45
2018-09-14T02:59:43.914Z,17.46
2018-09-14T03:02:12.609Z,17.42
2018-09-14T03:04:41.310Z,17.29
2018-09-14T03:07:09.986Z,17.17
2018-09-14T03:09:38.777Z,17.20
2018-09-14T03:12:07.521Z,17.15
2018-09-14T03:14:36.167Z,17.21
2018-09-14T03:17:05.046Z,17.28
2018-09-14T03:19:34.550Z,17.39
2018-09-14T03:22:03.373Z,17.27
2018-09-14T03:24:32.020Z,17.30
2018-09-14T03:27:00.673Z,17.20
2018-09-14T03:29:29.417Z,17.16
2018-09-14T03:31:58.081Z,17.13
2018-09-14T03:34:27.237Z,17.11
2018-09-14T03:36:56.006Z,16.99
2018-09-14T03:39:24.958Z,17.00
2018-09-14T03:41:53.659Z,16.95
2018-09-14T03:44:22.327Z,16.99
2018-09-14T03:46:51.474Z,17.07
2018-09-14T03:49:20.213Z,17.07
2018-09-14T03:51:48.924Z,17.16
2018-09-14T03:54:17.728Z,17.05
2018-09-14T03:56:46.500Z,17.11
2018-09-14T03:59:15.197Z,17.14
2018-09-14T04:01:43.974Z,17.17
2018-09-14T04:04:12.609Z,17.26
2018-09-14T04:06:41.302Z,17.13
2018-09-14T04:09:11.263Z,16.91
2018-09-14T04:11:40.227Z,16.67
2018-09-14T04:14:09.148Z,16.75
2018-09-14T04:16:37.816Z,16.71
2018-09-14T04:19:06.643Z,16.65
2018-09-14T04:21:36.718Z,16.59
2018-09-14T04:24:05.606Z,16.72
2018-09-14T04:26:34.321Z,16.82
2018-09-14T04:29:03.009Z,16.93
2018-09-14T04:31:31.700Z,16.75
2018-09-14T04:34:00.490Z,16.81
2018-09-14T04:36:29.309Z,16.77
2018-09-14T04:38:58.097Z,16.77
2018-09-14T04:41:26.939Z,16.72
2018-09-14T04:43:55.651Z,16.90
2018-09-14T04:46:24.286Z,16.75
2018-09-14T04:48:53.090Z,16.74
2018-09-14T04:51:21.978Z,16.68
2018-09-14T04:53:50.595Z,16.67
2018-09-14T04:56:19.517Z,16.59
2018-09-14T04:58:48.262Z,16.55
2018-09-14T05:01:16.999Z,16.60
2018-09-14T05:03:45.632Z,16.53
2018-09-14T05:06:14.287Z,16.64
2018-09-14T05:08:43.025Z,16.72
2018-09-14T05:11:11.802Z,16.71
2018-09-14T05:13:40.531Z,16.60
2018-09-14T05:16:09.249Z,16.64
2018-09-14T05:18:38.051Z,16.56
2018-09-14T05:21:06.894Z,16.59
2018-09-14T05:23:35.671Z,16.49
2018-09-14T05:26:04.467Z,16.58
2018-09-14T05:28:33.170Z,16.52
2018-09-14T05:31:01.846Z,16.61
2018-09-14T05:33:30.741Z,16.66
2018-09-14T05:35:59.424Z,16.67
2018-09-14T05:38:28.247Z,16.61
2018-09-14T05:40:56.914Z,16.66
2018-09-14T05:43:25.642Z,16.69
2018-09-14T05:45:54.600Z,16.66
2018-09-14T05:48:23.266Z,16.65
2018-09-14T05:50:52.138Z,16.64
2018-09-14T05:53:20.861Z,16.63
2018-09-14T05:55:49.550Z,16.60
2018-09-14T05:58:18.220Z,16.61
2018-09-14T06:00:46.893Z,16.67
2018-09-14T06:03:15.695Z,16.68
2018-09-14T06:05:44.797Z,16.78
2018-09-14T06:08:13.522Z,16.81
2018-09-14T06:10:42.177Z,16.89
2018-09-14T06:13:10.944Z,16.85
2018-09-14T06:15:42.660Z,16.95
2018-09-14T06:18:11.481Z,16.84
2018-09-14T06:20:40.149Z,16.91
2018-09-14T06:23:09.174Z,17.03
2018-09-14T06:25:37.763Z,17.13
2018-09-14T06:28:06.530Z,17.18
2018-09-14T06:30:35.337Z,17.19
2018-09-14T06:33:04.098Z,17.19
2018-09-14T06:35:32.794Z,17.11
2018-09-14T06:38:01.483Z,17.13
2018-09-14T06:40:30.205Z,17.29
2018-09-14T06:42:59.298Z,17.33
2018-09-14T06:45:28.106Z,17.44
2018-09-14T06:47:56.837Z,17.53
2018-09-14T06:50:25.546Z,17.63
2018-09-14T06:52:54.205Z,17.62
2018-09-14T06:55:23.031Z,17.47
2018-09-14T06:57:51.778Z,17.57
2018-09-14T07:00:20.730Z,17.70
2018-09-14T07:02:49.284Z,17.60
2018-09-14T07:05:17.989Z,17.85
2018-09-14T07:07:46.772Z,18.03
2018-09-14T07:10:15.645Z,17.89
2018-09-14T07:12:44.353Z,17.95
2018-09-14T07:15:13.091Z,17.93
2018-09-14T07:17:41.829Z,17.91
2018-09-14T07:20:10.814Z,17.86
2018-09-14T07:22:39.682Z,17.71
2018-09-14T07:25:09.326Z,17.80
2018-09-14T07:27:38.176Z,17.88
2018-09-14T07:30:07.229Z,18.00
2018-09-14T07:32:35.934Z,17.88
2018-09-14T07:35:04.662Z,17.85
2018-09-14T07:37:33.302Z,17.93
2018-09-14T07:40:02.083Z,17.88
2018-09-14T07:42:30.960Z,18.01
2018-09-14T07:44:59.946Z,18.03
2018-09-14T07:47:28.607Z,18.22
2018-09-14T07:49:57.261Z,18.21
2018-09-14T07:52:26.001Z,18.37
2018-09-14T07:54:54.763Z,18.52
2018-09-14T07:57:23.534Z,18.71
2018-09-14T07:59:52.206Z,18.64
2018-09-14T08:02:20.883Z,18.92
2018-09-14T08:04:49.562Z,19.02
2018-09-14T08:07:19.034Z,18.67
2018-09-14T08:09:47.782Z,18.58
2018-09-14T08:12:16.467Z,18.71
2018-09-14T08:14:45.183Z,18.58
2018-09-14T08:17:13.893Z,18.62
2018-09-14T08:19:42.638Z,18.52
2018-09-14T08:22:11.779Z,18.57
2018-09-14T08:24:40.783Z,18.81
2018-09-14T08:27:09.593Z,18.90
2018-09-14T08:29:38.657Z,19.11
2018-09-14T08:32:07.509Z,19.06
2018-09-14T08:34:36.344Z,19.05
2018-09-14T08:37:05.057Z,19.20
2018-09-14T08:39:33.922Z,19.33
2018-09-14T08:42:02.588Z,19.47
2018-09-14T08:44:31.367Z,19.25
2018-09-14T08:47:00.085Z,19.28
2018-09-14T08:49:28.849Z,19.37
2018-09-14T08:51:57.853Z,19.38
2018-09-14T08:54:26.666Z,19.38
2018-09-14T08:56:55.520Z,19.68
2018-09-14T08:59:24.209Z,19.63
2018-09-14T09:01:53.124Z,19.80
2018-09-14T09:04:21.915Z,19.77
2018-09-14T09:06:50.585Z,19.76
2018-09-14T09:09:20.353Z,19.65
2018-09-14T09:11:49.085Z,19.76
2018-09-14T09:14:18.197Z,19.84
2018-09-14T09:16:46.843Z,20.03
2018-09-14T09:19:15.551Z,20.16
2018-09-14T09:21:44.359Z,20.27
2018-09-14T09:24:13.494Z,20.22
2018-09-14T09:26:42.319Z,20.09
2018-09-14T09:29:11.002Z,20.04
2018-09-14T09:31:39.753Z,20.34
2018-09-14T09:34:08.421Z,20.45
2018-09-14T09:36:37.701Z,20.92
2018-09-14T09:39:10.085Z,21.51
2018-09-14T09:41:39.385Z,21.14
2018-09-14T09:44:08.325Z,21.34
2018-09-14T09:46:37.269Z,21.60
2018-09-14T09:49:06.206Z,21.60
2018-09-14T09:51:35.033Z,21.88
2018-09-14T09:54:03.842Z,22.12
2018-09-14T09:56:32.689Z,21.75
2018-09-14T09:59:01.495Z,21.90
2018-09-14T10:02:33.161Z,21.86
2018-09-14T10:05:07.156Z,22.08
2018-09-14T10:07:35.885Z,21.95
2018-09-14T10:10:04.874Z,21.90
2018-09-14T10:12:33.632Z,21.92
2018-09-14T10:15:02.538Z,21.74
2018-09-14T10:17:31.350Z,21.68
2018-09-14T10:20:00.098Z,21.66
2018-09-14T10:22:28.839Z,21.69
2018-09-14T10:24:57.567Z,21.18
2018-09-14T10:27:26.209Z,21.15
2018-09-14T10:29:55.066Z,21.32
2018-09-14T10:32:23.859Z,21.44
2018-09-14T10:34:52.671Z,21.60
2018-09-14T10:37:21.672Z,21.65
2018-09-14T10:39:50.506Z,21.81
2018-09-14T10:42:19.248Z,21.71
2018-09-14T10:44:48.013Z,21.61
2018-09-14T10:47:16.837Z,21.73
2018-09-14T10:49:45.765Z,21.85
2018-09-14T10:52:14.698Z,21.95
2018-09-14T10:54:43.494Z,21.85
2018-09-14T10:57:12.483Z,22.05
2018-09-14T10:59:41.690Z,22.17
2018-09-14T11:02:10.580Z,22.41
2018-09-14T11:04:39.609Z,22.49
2018-09-14T11:07:08.407Z,22.35
2018-09-14T11:09:37.132Z,22.35
2018-09-14T11:12:05.938Z,22.19
2018-09-14T11:14:34.718Z,22.14
2018-09-14T11:17:03.521Z,22.18
2018-09-14T11:19:32.298Z,22.01
2018-09-14T11:22:01.044Z,22.31
2018-09-14T11:24:29.910Z,22.28
2018-09-14T11:26:58.673Z,22.37
2018-09-14T11:29:27.400Z,22.33
2018-09-14T11:31:56.259Z,22.59
2018-09-14T11:34:24.987Z,22.75
2018-09-14T11:36:53.809Z,22.82
2018-09-14T11:39:22.504Z,22.90
2018-09-14T11:41:51.137Z,22.97
2018-09-14T11:44:19.902Z,22.95
2018-09-14T11:46:48.769Z,23.12
2018-09-14T11:49:17.578Z,22.75
2018-09-14T11:51:46.498Z,22.58
2018-09-14T11:54:15.507Z,22.33
2018-09-14T11:56:44.223Z,21.79
2018-09-14T11:59:12.905Z,21.76
2018-09-14T12:01:41.825Z,21.96
2018-09-14T12:04:10.671Z,22.14
2018-09-14T12:06:39.407Z,22.38
2018-09-14T12:09:10.624Z,22.25
2018-09-14T12:11:40.045Z,22.19
2018-09-14T12:14:09.231Z,21.86
2018-09-14T12:16:38.115Z,21.81
2018-09-14T12:19:07.109Z,22.28
2018-09-14T12:21:35.774Z,23.17
2018-09-14T12:24:04.459Z,24.74
2018-09-14T12:26:33.299Z,26.04
2018-09-14T12:29:02.069Z,27.29
2018-09-14T12:31:30.726Z,28.44
2018-09-14T12:33:59.470Z,29.34
2018-09-14T12:36:28.418Z,29.66
2018-09-14T12:38:57.352Z,29.95
2018-09-14T12:41:26.126Z,30.82
2018-09-14T12:43:54.841Z,31.72
2018-09-14T12:46:23.718Z,32.06
2018-09-14T12:48:52.365Z,32.24
2018-09-14T12:51:21.123Z,32.18
2018-09-14T12:53:49.892Z,31.82
2018-09-14T12:56:18.713Z,30.86
2018-09-14T12:58:47.432Z,31.55
2018-09-14T13:01:16.974Z,31.00
2018-09-14T13:03:45.742Z,32.56
2018-09-14T13:06:14.450Z,31.19
2018-09-14T13:08:43.161Z,29.60
2018-09-14T13:11:11.955Z,28.26
2018-09-14T13:13:40.770Z,27.81
2018-09-14T13:16:09.801Z,28.58
2018-09-14T13:18:38.497Z,26.88
2018-09-14T13:21:07.292Z,27.03
2018-09-14T13:23:35.974Z,25.07
2018-09-14T13:26:04.739Z,24.57
2018-09-14T13:28:33.539Z,25.65
2018-09-14T13:31:02.204Z,27.48
2018-09-14T13:33:31.128Z,29.36
2018-09-14T13:36:00.051Z,30.65
2018-09-14T13:38:28.765Z,32.41
2018-09-14T13:40:57.598Z,32.51
2018-09-14T13:43:26.360Z,33.86
2018-09-14T13:45:55.142Z,34.24
2018-09-14T13:48:23.875Z,33.32
2018-09-14T13:50:52.634Z,32.88
2018-09-14T13:53:21.443Z,30.76
2018-09-14T13:55:50.119Z,31.03
2018-09-14T13:58:18.742Z,29.87
2018-09-14T14:00:47.557Z,29.32
2018-09-14T14:03:16.257Z,30.28
2018-09-14T14:05:44.973Z,29.55
2018-09-14T14:08:13.662Z,27.46
2018-09-14T14:10:42.662Z,25.91
2018-09-14T14:13:11.311Z,26.19
2018-09-14T14:15:40.151Z,26.16
2018-09-14T14:18:09.173Z,25.20
2018-09-14T14:20:38.280Z,25.74
2018-09-14T14:23:07.569Z,26.06
2018-09-14T14:25:36.351Z,26.06
2018-09-14T14:28:04.977Z,25.73
2018-09-14T14:30:34.223Z,25.52
2018-09-14T14:33:03.114Z,25.32
2018-09-14T14:35:31.869Z,24.90
2018-09-14T14:38:00.522Z,24.37
2018-09-14T14:40:29.178Z,23.61
2018-09-14T14:42:57.921Z,23.28
2018-09-14T14:45:26.690Z,22.99
2018-09-14T14:47:55.430Z,23.41
2018-09-14T14:50:24.153Z,23.53
2018-09-14T14:52:52.866Z,23.50
2018-09-14T14:55:21.558Z,22.81
2018-09-14T14:57:50.299Z,23.17
2018-09-14T15:00:19.058Z,23.12
2018-09-14T15:02:48.037Z,23.11
2018-09-14T15:05:17.036Z,22.94
2018-09-14T15:07:45.924Z,23.09
2018-09-14T15:10:14.585Z,22.76
2018-09-14T15:12:43.421Z,22.61
2018-09-14T15:15:12.243Z,23.15
2018-09-14T15:17:41.142Z,23.41
2018-09-14T15:20:09.857Z,23.36
2018-09-14T15:22:38.640Z,23.21
2018-09-14T15:25:07.571Z,23.27
2018-09-14T15:27:36.257Z,23.61
2018-09-14T15:30:05.035Z,23.12
2018-09-14T15:32:33.727Z,23.42
2018-09-14T15:35:02.491Z,23.61
2018-09-14T15:37:31.354Z,23.65
2018-09-14T15:40:00.114Z,23.74
2018-09-14T15:42:30.126Z,23.87
2018-09-14T15:44:59.097Z,23.14
2018-09-14T15:47:27.773Z,23.29
2018-09-14T15:49:56.453Z,23.34
2018-09-14T15:52:25.558Z,23.19
2018-09-14T15:54:54.716Z,23.10
2018-09-14T15:57:23.557Z,23.29
2018-09-14T15:59:52.325Z,23.29
2018-09-14T16:02:20.985Z,23.26
2018-09-14T16:04:49.840Z,23.16
2018-09-14T16:07:18.514Z,23.03
2018-09-14T16:09:47.463Z,23.10
2018-09-14T16:12:16.165Z,22.79
2018-09-14T16:14:44.842Z,23.07
2018-09-14T16:17:13.642Z,22.93
2018-09-14T16:19:42.316Z,22.56
2018-09-14T16:22:11.142Z,22.43
2018-09-14T16:24:39.798Z,22.19
2018-09-14T16:27:08.609Z,22.05
2018-09-14T16:29:37.369Z,21.99
2018-09-14T16:32:06.189Z,21.78
2018-09-14T16:34:35.299Z,22.09
2018-09-14T16:37:04.100Z,22.11
2018-09-14T16:39:32.845Z,21.92
2018-09-14T16:42:01.499Z,21.82
2018-09-14T16:44:30.214Z,21.77
2018-09-14T16:46:59.041Z,21.78
2018-09-14T16:49:27.723Z,21.85
2018-09-14T16:51:56.929Z,21.91
2018-09-14T16:54:25.918Z,21.80
2018-09-14T16:56:54.575Z,21.81
2018-09-14T16:59:23.416Z,21.84
2018-09-14T17:01:52.159Z,21.77
2018-09-14T17:04:20.817Z,21.69
2018-09-14T17:06:49.868Z,21.66
2018-09-14T17:09:18.685Z,21.63
2018-09-14T17:11:47.746Z,21.65
2018-09-14T17:14:16.514Z,21.61
2018-09-14T17:16:45.193Z,21.65
2018-09-14T17:19:14.117Z,21.68
2018-09-14T17:21:42.772Z,21.58
2018-09-14T17:24:11.494Z,21.56
2018-09-14T17:26:40.222Z,21.43
2018-09-14T17:29:09.239Z,21.43
2018-09-14T17:31:38.048Z,21.53
2018-09-14T17:34:06.730Z,21.50
2018-09-14T17:36:35.405Z,21.42
2018-09-14T17:39:05.118Z,21.37
2018-09-14T17:41:33.794Z,21.36
2018-09-14T17:44:02.656Z,21.28
2018-09-14T17:46:31.363Z,21.31
2018-09-14T17:49:01.003Z,21.25
2018-09-14T17:51:29.672Z,21.28
2018-09-14T17:53:58.364Z,21.41
2018-09-14T17:56:27.290Z,21.38
2018-09-14T17:58:55.971Z,21.32
2018-09-14T18:01:24.865Z,21.29
2018-09-14T18:03:53.610Z,21.25
2018-09-14T18:06:22.314Z,21.37
2018-09-14T18:08:51.022Z,21.33
2018-09-14T18:11:19.671Z,21.26
2018-09-14T18:13:48.701Z,21.45
2018-09-14T18:16:17.392Z,21.42
2018-09-14T18:18:46.149Z,21.36
2018-09-14T18:21:14.857Z,21.23
2018-09-14T18:23:43.507Z,21.32
2018-09-14T18:26:12.345Z,21.31
2018-09-14T18:28:41.095Z,21.36
2018-09-14T18:31:09.934Z,21.30
2018-09-14T18:33:38.605Z,21.37
2018-09-14T18:36:07.546Z,21.24
2018-09-14T18:38:36.340Z,21.25
2018-09-14T18:41:05.296Z,21.24
2018-09-14T18:43:33.968Z,21.25
2018-09-14T18:46:02.658Z,21.19
2018-09-14T18:48:31.354Z,21.18
2018-09-14T18:51:00.234Z,21.15
2018-09-14T18:53:29.194Z,21.20
2018-09-14T18:55:58.110Z,21.11
2018-09-14T18:58:26.923Z,21.10
2018-09-14T19:00:55.686Z,21.07
2018-09-14T19:03:24.528Z,21.12
2018-09-14T19:05:53.288Z,21.11
2018-09-14T19:08:22.471Z,21.15
2018-09-14T19:10:51.192Z,20.98
2018-09-14T19:13:19.923Z,21.13
2018-09-14T19:15:48.822Z,21.10
2018-09-14T19:18:17.509Z,21.17
2018-09-14T19:20:46.247Z,21.10
2018-09-14T19:23:14.989Z,21.14
2018-09-14T19:25:43.649Z,21.04
2018-09-14T19:28:12.481Z,21.01
2018-09-14T19:30:41.362Z,21.03
2018-09-14T19:33:10.186Z,20.99
2018-09-14T19:35:38.952Z,20.99
2018-09-14T19:38:07.676Z,20.96
2018-09-14T19:40:36.426Z,20.95
2018-09-14T19:43:05.102Z,20.95
2018-09-14T19:45:33.782Z,20.92
2018-09-14T19:48:02.497Z,20.90
2018-09-14T19:50:31.247Z,20.82
2018-09-14T19:52:59.946Z,20.82
2018-09-14T19:55:28.626Z,20.86
2018-09-14T19:57:57.326Z,20.91
2018-09-14T20:00:26.179Z,20.77
2018-09-14T20:02:54.888Z,20.73
2018-09-14T20:05:24.020Z,20.74
2018-09-14T20:07:52.794Z,20.69
2018-09-14T20:10:21.473Z,20.75
2018-09-14T20:12:50.158Z,20.65
2018-09-14T20:15:18.967Z,20.67
2018-09-14T20:17:47.662Z,20.71
2018-09-14T20:20:16.357Z,20.69
2018-09-14T20:22:45.034Z,20.73
2018-09-14T20:25:13.722Z,20.74
2018-09-14T20:27:42.386Z,20.58
2018-09-14T20:30:11.094Z,20.55
2018-09-14T20:32:40.082Z,20.59
2018-09-14T20:35:09.018Z,20.62
2018-09-14T20:37:37.960Z,20.63
2018-09-14T20:40:06.772Z,20.59
2018-09-14T20:42:35.653Z,20.52
2018-09-14T20:45:04.535Z,20.65
2018-09-14T20:47:33.743Z,20.56
2018-09-14T20:50:02.728Z,20.60
2018-09-14T20:52:31.502Z,20.59
2018-09-14T20:55:00.319Z,20.36
2018-09-14T20:57:29.097Z,20.37
2018-09-14T20:59:57.877Z,20.44
2018-09-14T21:02:27.018Z,20.55
2018-09-14T21:04:56.086Z,20.42
2018-09-14T21:07:24.802Z,20.31
2018-09-14T21:09:53.855Z,20.24
2018-09-14T21:12:22.531Z,20.26
2018-09-14T21:14:51.353Z,20.25
2018-09-14T21:17:20.074Z,20.15
2018-09-14T21:19:48.902Z,20.12
2018-09-14T21:22:17.788Z,20.10
2018-09-14T21:24:47.393Z,20.12
2018-09-14T21:27:16.191Z,20.02
2018-09-14T21:29:44.987Z,20.00
2018-09-14T21:32:14.001Z,20.04
2018-09-14T21:34:42.756Z,19.99
2018-09-14T21:37:11.489Z,19.82
2018-09-14T21:39:40.312Z,19.81
2018-09-14T21:42:09.019Z,19.79
2018-09-14T21:44:37.950Z,19.79
2018-09-14T21:47:06.921Z,19.78
2018-09-14T21:49:35.579Z,19.69
2018-09-14T21:52:04.302Z,19.43
2018-09-14T21:54:33.057Z,19.45
2018-09-14T21:57:01.775Z,19.39
2018-09-14T21:59:30.582Z,19.32
2018-09-14T22:01:59.258Z,19.24
2018-09-14T22:04:28.039Z,19.18
2018-09-14T22:06:56.910Z,19.12
2018-09-14T22:09:25.836Z,19.09
2018-09-14T22:11:54.487Z,19.00
2018-09-14T22:14:23.172Z,18.93
2018-09-14T22:16:51.895Z,18.89
2018-09-14T22:19:20.545Z,18.87
2018-09-14T22:21:49.927Z,18.82
2018-09-14T22:24:18.781Z,18.77
2018-09-14T22:26:47.557Z,18.83
2018-09-14T22:29:16.248Z,18.81
2018-09-14T22:31:44.923Z,18.78
2018-09-14T22:34:13.930Z,18.69
2018-09-14T22:36:42.828Z,18.66
2018-09-14T22:39:13.017Z,18.59
2018-09-14T22:41:41.702Z,18.54
2018-09-14T22:44:11.203Z,18.56
2018-09-14T22:46:40.033Z,18.50
2018-09-14T22:49:08.793Z,18.42
2018-09-14T22:51:37.819Z,18.40
2018-09-14T22:54:06.566Z,18.34
2018-09-14T22:56:35.223Z,18.30
2018-09-14T22:59:04.186Z,18.27
2018-09-14T23:01:32.988Z,18.20
2018-09-14T23:04:01.710Z,18.12
2018-09-14T23:06:30.387Z,18.01
2018-09-14T23:08:59.095Z,17.99
2018-09-14T23:11:28.046Z,17.94
2018-09-14T23:13:56.801Z,17.93
2018-09-14T23:16:25.578Z,17.91
2018-09-14T23:18:54.241Z,17.88
2018-09-14T23:21:22.895Z,17.86
2018-09-14T23:23:51.861Z,17.85
2018-09-14T23:26:22.759Z,17.82
2018-09-14T23:28:51.481Z,17.75
2018-09-14T23:31:20.170Z,17.70
2018-09-14T23:33:49.643Z,17.64
2018-09-14T23:36:18.753Z,17.63
2018-09-14T23:38:47.472Z,17.61
2018-09-14T23:41:16.561Z,17.62
2018-09-14T23:43:45.215Z,17.71
2018-09-14T23:46:13.861Z,17.74
2018-09-14T23:48:42.621Z,17.85
2018-09-14T23:51:11.390Z,17.83
2018-09-14T23:53:40.308Z,17.90
2018-09-14T23:56:09.077Z,17.91
2018-09-14T23:58:37.826Z,17.95
